Time;durP1;ratioP1;P1;durP2;ratioP2;P2;SDS_P1;SDS_P2;PMS_P1;PMS_P2;Temp;Humidity;BMP_temperature;BMP_pressure;BME280_temperature;BME280_humidity;BME280_pressure;Samples;Min_cycle;Max_cycle;Signal;HPM_P1;HPM_P2
2022/12/28 00:02:10;;;;;;;;;;;25.60;99.90;;;;;;4976606;28;19917;-75
2022/12/28 00:04:36;;;;;;;;;;;25.50;99.90;;;;;;4994284;28;19936;-69
2022/12/28 00:07:06;;;;;;;;;;;25.40;99.90;;;;;;4994883;28;20357;-82
2022/12/28 00:09:33;;;;;;;;;;;25.50;99.90;;;;;;4994174;28;20005;-65
2022/12/28 00:11:59;;;;;;;;;;;25.50;99.90;;;;;;4994452;28;19917;-64
2022/12/28 00:14:26;;;;;;;;;;;25.50;99.90;;;;;;4994136;28;19910;-65
2022/12/28 00:16:53;;;;;;;;;;;25.50;99.90;;;;;;4994235;28;19937;-65
2022/12/28 00:19:19;;;;;;;;;;;25.50;99.90;;;;;;4993833;28;19910;-67
2022/12/28 00:21:46;;;;;;;;;;;25.60;99.90;;;;;;4993857;28;19956;-64
2022/12/28 00:24:23;;;;;;;;;;;25.60;99.90;;;;;;4993936;28;19917;-64
2022/12/28 00:26:50;;;;;;;;;;;25.70;99.90;;;;;;4993703;28;19917;-65
2022/12/28 00:29:17;;;;;;;;;;;25.70;99.90;;;;;;4993454;28;19965;-74
2022/12/28 00:31:47;;;;;;;;;;;25.70;99.90;;;;;;4993911;28;20324;-72
2022/12/28 00:34:13;;;;;;;;;;;25.90;99.90;;;;;;4993994;28;19920;-71
2022/12/28 00:36:40;;;;;;;;;;;26.10;99.90;;;;;;4994201;28;19914;-70
2022/12/28 00:39:07;;;;;;;;;;;26.00;99.90;;;;;;4994181;28;19913;-77
2022/12/28 00:41:33;;;;;;;;;;;25.90;99.90;;;;;;4993809;28;19914;-75
2022/12/28 00:44:00;;;;;;;;;;;26.10;99.90;;;;;;4993777;28;19933;-70
2022/12/28 00:46:27;;;;;;;;;;;26.20;99.90;;;;;;4994181;28;19971;-70
2022/12/28 00:48:53;;;;;;;;;;;26.10;99.90;;;;;;4976609;28;20327;-79
2022/12/28 00:51:20;;;;;;;;;;;26.10;99.90;;;;;;4993624;28;19913;-74
2022/12/28 00:53:47;;;;;;;;;;;26.30;99.90;;;;;;4993837;28;19921;-72
2022/12/28 00:56:15;;;;;;;;;;;26.40;99.90;;;;;;4993708;28;19909;-68
2022/12/28 00:58:42;;;;;;;;;;;26.60;99.90;;;;;;4993609;28;19910;-69
2022/12/28 01:01:21;;;;;;;;;;;27.00;99.90;;;;;;4993983;28;19913;-80
2022/12/28 01:03:49;;;;;;;;;;;27.50;99.90;;;;;;4993860;28;19910;-79
2022/12/28 01:06:17;;;;;;;;;;;28.10;99.90;;;;;;4993868;28;19976;-80
2022/12/28 01:08:44;;;;;;;;;;;28.50;99.90;;;;;;4993876;28;19947;-66
2022/12/28 01:11:13;;;;;;;;;;;28.90;99.90;;;;;;4993963;28;20020;-75
2022/12/28 01:13:39;;;;;;;;;;;29.00;99.90;;;;;;4993654;28;20001;-74
2022/12/28 01:16:16;;;;;;;;;;;29.40;99.90;;;;;;4993791;28;19910;-74
2022/12/28 01:18:44;;;;;;;;;;;29.50;99.90;;;;;;4993763;28;19910;-80
2022/12/28 01:21:15;;;;;;;;;;;29.50;99.90;;;;;;4993512;28;19921;-73
2022/12/28 01:23:42;;;;;;;;;;;29.70;99.90;;;;;;4993694;28;20059;-77
2022/12/28 01:26:09;;;;;;;;;;;29.80;99.90;;;;;;4993627;28;19918;-71
2022/12/28 01:28:36;;;;;;;;;;;29.70;99.90;;;;;;4993598;28;20329;-72
2022/12/28 01:31:06;;;;;;;;;;;29.70;99.90;;;;;;4997244;28;19937;-73
2022/12/28 01:33:33;;;;;;;;;;;29.80;99.90;;;;;;4997225;28;19910;-70
2022/12/28 01:36:05;;;;;;;;;;;29.50;99.90;;;;;;4997176;28;19914;-67
2022/12/28 01:38:31;;;;;;;;;;;29.90;99.90;;;;;;4997249;28;19994;-69
2022/12/28 01:40:58;;;;;;;;;;;30.00;99.90;;;;;;4997128;28;19941;-73
2022/12/28 01:43:35;;;;;;;;;;;30.00;99.90;;;;;;4996593;28;19910;-67
2022/12/28 01:46:02;;;;;;;;;;;30.20;99.90;;;;;;4997022;28;20372;-79
2022/12/28 01:48:30;;;;;;;;;;;30.00;99.90;;;;;;4996983;28;19922;-71
2022/12/28 01:50:56;;;;;;;;;;;29.90;99.90;;;;;;4996992;28;19945;-69
2022/12/28 01:53:23;;;;;;;;;;;29.70;99.90;;;;;;4996377;28;20411;-67
2022/12/28 01:55:50;;;;;;;;;;;29.10;99.90;;;;;;4996962;28;19968;-68
2022/12/28 01:58:27;;;;;;;;;;;28.60;99.90;;;;;;4996720;28;19961;-69
2022/12/28 02:00:54;;;;;;;;;;;28.40;99.90;;;;;;4979476;28;20280;-66
2022/12/28 02:03:28;;;;;;;;;;;28.00;99.90;;;;;;4996412;28;19917;-68
2022/12/28 02:05:56;;;;;;;;;;;27.90;99.90;;;;;;4996682;28;19950;-72
2022/12/28 02:08:28;;;;;;;;;;;27.70;99.90;;;;;;4996545;28;19921;-66
2022/12/28 02:10:55;;;;;;;;;;;27.60;99.90;;;;;;4996781;28;20303;-68
2022/12/28 02:13:23;;;;;;;;;;;27.50;99.90;;;;;;4996411;28;20332;-66
2022/12/28 02:15:50;;;;;;;;;;;27.50;99.90;;;;;;4996674;28;19972;-68
2022/12/28 02:18:17;;;;;;;;;;;27.40;99.90;;;;;;4996643;28;19910;-66
2022/12/28 02:21:02;;;;;;;;;;;27.50;99.90;;;;;;4996663;28;20326;-69
2022/12/28 02:23:35;;;;;;;;;;;27.50;99.90;;;;;;4996401;28;19956;-67
2022/12/28 02:26:05;;;;;;;;;;;27.40;99.90;;;;;;4996372;28;19920;-69
2022/12/28 02:28:49;;;;;;;;;;;27.40;99.90;;;;;;4996464;28;19913;-66
2022/12/28 02:31:36;;;;;;;;;;;27.30;99.90;;;;;;4996265;28;20044;-69
2022/12/28 02:34:25;;;;;;;;;;;27.40;99.90;;;;;;4965925;28;19910;-66
2022/12/28 02:36:56;;;;;;;;;;;27.40;99.90;;;;;;4988748;28;19997;-66
2022/12/28 02:39:27;;;;;;;;;;;27.20;99.90;;;;;;4995988;28;19909;-68
2022/12/28 02:41:55;;;;;;;;;;;27.10;99.90;;;;;;4996799;28;19941;-69
2022/12/28 02:50:07;;;;;;;;;;;27.00;99.90;;;;;;4997659;28;20001;-74
2022/12/28 02:52:49;;;;;;;;;;;26.90;99.90;;;;;;4996864;28;19913;-65
2022/12/28 02:58:24;;;;;;;;;;;26.70;99.90;;;;;;4996171;28;19917;-63
2022/12/28 03:00:50;;;;;;;;;;;26.80;99.90;;;;;;4996376;28;19925;-66
2022/12/28 03:03:20;;;;;;;;;;;26.70;99.90;;;;;;4995656;28;19921;-66
2022/12/28 03:08:59;;;;;;;;;;;26.50;99.90;;;;;;4995325;28;20024;-65
2022/12/28 03:11:35;;;;;;;;;;;26.50;99.90;;;;;;4995595;28;20041;-64
2022/12/28 03:14:05;;;;;;;;;;;26.40;99.90;;;;;;4995451;28;19909;-66
2022/12/28 03:33:12;;;;;;;;;;;26.80;99.90;;;;;;4995428;28;20443;-66
2022/12/28 03:35:45;;;;;;;;;;;26.80;99.90;;;;;;4994897;28;20008;-69
2022/12/28 03:38:25;;;;;;;;;;;26.70;99.90;;;;;;4995063;28;19914;-66
2022/12/28 03:40:58;;;;;;;;;;;26.60;99.90;;;;;;4994830;28;19910;-69
2022/12/28 03:43:42;;;;;;;;;;;26.60;99.90;;;;;;4994456;28;19910;-76
2022/12/28 03:46:10;;;;;;;;;;;26.60;99.90;;;;;;4994489;28;20012;-71
2022/12/28 03:48:38;;;;;;;;;;;26.60;99.90;;;;;;4994560;28;19913;-67
2022/12/28 03:51:04;;;;;;;;;;;26.70;99.90;;;;;;4994462;28;19910;-67
2022/12/28 03:53:42;;;;;;;;;;;26.80;99.90;;;;;;4993516;28;19917;-69
2022/12/28 03:56:13;;;;;;;;;;;26.60;99.90;;;;;;4994393;28;19921;-67
2022/12/28 03:58:40;;;;;;;;;;;26.60;99.90;;;;;;4994098;28;19914;-70
2022/12/28 04:01:07;;;;;;;;;;;26.80;99.90;;;;;;4994307;28;19917;-64
2022/12/28 04:03:34;;;;;;;;;;;26.60;99.90;;;;;;4994252;28;19917;-67
2022/12/28 04:06:01;;;;;;;;;;;26.50;99.90;;;;;;4994235;28;19917;-70
2022/12/28 04:08:28;;;;;;;;;;;26.50;99.90;;;;;;4994340;28;19917;-79
2022/12/28 04:10:54;;;;;;;;;;;26.50;99.90;;;;;;4994330;28;19910;-66
2022/12/28 04:13:21;;;;;;;;;;;26.40;99.90;;;;;;4993810;28;19910;-72
2022/12/28 04:16:01;;;;;;;;;;;26.30;99.90;;;;;;4994232;28;20284;-76
2022/12/28 04:18:28;;;;;;;;;;;26.30;99.90;;;;;;4996086;28;20428;-66
2022/12/28 04:20:54;;;;;;;;;;;26.10;99.90;;;;;;4995961;28;19973;-69
2022/12/28 04:23:21;;;;;;;;;;;26.10;99.90;;;;;;4995994;28;19996;-65
2022/12/28 04:26:04;;;;;;;;;;;26.10;99.90;;;;;;4998021;28;19913;-77
2022/12/28 04:28:31;;;;;;;;;;;26.10;99.90;;;;;;4993990;28;19914;-74
2022/12/28 04:30:59;;;;;;;;;;;26.10;99.90;;;;;;4994286;28;19909;-75
2022/12/28 04:33:26;;;;;;;;;;;26.00;99.90;;;;;;4992909;28;19996;-79
2022/12/28 04:35:52;;;;;;;;;;;26.00;99.90;;;;;;4993020;28;19910;-75
2022/12/28 04:38:19;;;;;;;;;;;26.10;99.90;;;;;;4994099;28;19910;-80
2022/12/28 04:40:46;;;;;;;;;;;26.00;99.90;;;;;;4994142;28;19917;-80
2022/12/28 04:43:13;;;;;;;;;;;26.00;99.90;;;;;;4993713;28;19910;-76
2022/12/28 04:45:40;;;;;;;;;;;25.90;99.90;;;;;;4993941;28;19971;-78
2022/12/28 04:48:06;;;;;;;;;;;25.90;99.90;;;;;;4976208;28;19918;-72
2022/12/28 04:50:33;;;;;;;;;;;25.90;99.90;;;;;;4993790;28;20013;-79
2022/12/28 04:53:00;;;;;;;;;;;25.80;99.90;;;;;;4993628;28;19949;-65
2022/12/28 04:55:26;;;;;;;;;;;25.90;99.90;;;;;;4993477;28;19914;-71
2022/12/28 04:57:53;;;;;;;;;;;25.90;99.90;;;;;;4993460;28;20320;-74
2022/12/28 05:00:20;;;;;;;;;;;26.00;99.90;;;;;;4993754;28;20280;-78
2022/12/28 05:02:46;;;;;;;;;;;26.00;99.90;;;;;;4993738;28;20380;-72
2022/12/28 05:05:13;;;;;;;;;;;26.00;99.90;;;;;;4996436;28;19910;-74
2022/12/28 05:07:39;;;;;;;;;;;26.00;99.90;;;;;;4997328;28;19965;-80
2022/12/28 05:10:06;;;;;;;;;;;26.00;99.90;;;;;;4997548;28;19910;-79
2022/12/28 05:12:33;;;;;;;;;;;25.90;99.90;;;;;;4997574;28;19964;-79
2022/12/28 05:14:59;;;;;;;;;;;25.90;99.90;;;;;;4997631;28;19963;-80
2022/12/28 05:17:26;;;;;;;;;;;25.90;99.90;;;;;;4997202;28;20021;-77
2022/12/28 05:19:53;;;;;;;;;;;25.90;99.90;;;;;;4997402;28;20391;-78
2022/12/28 05:22:19;;;;;;;;;;;25.90;99.90;;;;;;4997304;28;19917;-76
2022/12/28 05:24:46;;;;;;;;;;;25.80;99.90;;;;;;4997396;28;19910;-78
2022/12/28 05:27:13;;;;;;;;;;;25.90;99.90;;;;;;4996964;28;19918;-79
2022/12/28 05:29:39;;;;;;;;;;;25.90;99.90;;;;;;4996968;28;20376;-78
2022/12/28 05:32:06;;;;;;;;;;;25.80;99.90;;;;;;4997269;28;19917;-77
2022/12/28 05:34:33;;;;;;;;;;;25.80;99.90;;;;;;4997371;28;19910;-77
2022/12/28 05:36:59;;;;;;;;;;;25.70;99.90;;;;;;4997173;28;20451;-75
2022/12/28 05:39:32;;;;;;;;;;;25.70;99.90;;;;;;4996981;28;19910;-80
2022/12/28 05:41:59;;;;;;;;;;;25.70;99.90;;;;;;4996796;28;19968;-74
2022/12/28 05:44:26;;;;;;;;;;;25.70;99.90;;;;;;4996992;28;19910;-75
2022/12/28 05:46:53;;;;;;;;;;;25.50;99.90;;;;;;4997157;28;20431;-79
2022/12/28 05:49:19;;;;;;;;;;;25.50;99.90;;;;;;4996966;28;20391;-77
2022/12/28 05:51:47;;;;;;;;;;;25.30;99.90;;;;;;4994817;28;19910;-76
2022/12/28 05:54:14;;;;;;;;;;;25.30;99.90;;;;;;4993834;28;20021;-80
2022/12/28 05:56:41;;;;;;;;;;;25.20;99.90;;;;;;4993437;28;19916;-80
2022/12/28 05:59:07;;;;;;;;;;;25.20;99.90;;;;;;4993363;28;19910;-77
2022/12/28 06:01:36;;;;;;;;;;;25.20;99.90;;;;;;4993162;28;19909;-75
2022/12/28 06:04:04;;;;;;;;;;;25.10;99.90;;;;;;4993281;28;19914;-81
2022/12/28 06:06:31;;;;;;;;;;;25.10;99.90;;;;;;4993614;28;19969;-79
2022/12/28 06:08:58;;;;;;;;;;;25.10;99.90;;;;;;4993194;28;20300;-77
2022/12/28 06:11:25;;;;;;;;;;;24.90;99.90;;;;;;4993195;28;19914;-80
2022/12/28 06:13:52;;;;;;;;;;;24.80;99.90;;;;;;4993216;28;19960;-81
2022/12/28 06:16:20;;;;;;;;;;;24.80;99.90;;;;;;4992882;28;19921;-78
2022/12/28 06:18:47;;;;;;;;;;;24.80;99.90;;;;;;4992903;28;20005;-74
2022/12/28 06:21:14;;;;;;;;;;;24.80;99.90;;;;;;4993108;28;19910;-79
2022/12/28 06:23:42;;;;;;;;;;;24.80;99.90;;;;;;4993272;28;19948;-78
2022/12/28 06:26:10;;;;;;;;;;;24.80;99.90;;;;;;4992721;28;19995;-80
2022/12/28 06:28:37;;;;;;;;;;;24.60;99.90;;;;;;4993228;28;19913;-81
2022/12/28 06:31:09;;;;;;;;;;;24.60;99.90;;;;;;4992663;28;20044;-82
2022/12/28 06:33:36;;;;;;;;;;;24.60;99.90;;;;;;4992647;28;19914;-78
2022/12/28 06:36:03;;;;;;;;;;;24.60;99.90;;;;;;4992780;28;20352;-73
2022/12/28 06:38:31;;;;;;;;;;;24.70;99.90;;;;;;4993000;28;19924;-71
2022/12/28 06:41:05;;;;;;;;;;;24.70;99.90;;;;;;4992887;28;19914;-81
2022/12/28 06:43:32;;;;;;;;;;;24.70;99.90;;;;;;4992383;28;19917;-78
2022/12/28 06:46:00;;;;;;;;;;;24.70;99.90;;;;;;4992525;28;19917;-80
2022/12/28 06:48:26;;;;;;;;;;;24.70;99.90;;;;;;4992664;28;20427;-76
2022/12/28 06:50:57;;;;;;;;;;;24.60;99.90;;;;;;4992622;28;19914;-72
2022/12/28 06:53:28;;;;;;;;;;;24.50;99.90;;;;;;4865180;28;3666880;-80
2022/12/28 06:55:59;;;;;;;;;;;24.50;99.90;;;;;;4993887;28;20039;-74
2022/12/28 06:58:26;;;;;;;;;;;24.40;99.90;;;;;;4993127;28;19940;-76
2022/12/28 07:00:53;;;;;;;;;;;24.30;99.90;;;;;;4992909;28;19913;-71
2022/12/28 07:03:20;;;;;;;;;;;24.30;99.90;;;;;;4993090;28;19917;-76
2022/12/28 07:05:47;;;;;;;;;;;24.30;99.90;;;;;;4993562;28;19910;-80
2022/12/28 07:08:17;;;;;;;;;;;24.20;99.90;;;;;;4993399;28;19933;-79
2022/12/28 07:10:44;;;;;;;;;;;24.20;99.90;;;;;;4993054;28;19914;-78
2022/12/28 07:13:10;;;;;;;;;;;24.20;99.90;;;;;;4993344;28;19917;-78
2022/12/28 07:15:37;;;;;;;;;;;24.20;99.90;;;;;;4993133;28;19917;-78
2022/12/28 07:18:04;;;;;;;;;;;24.10;99.90;;;;;;4993144;28;19916;-80
2022/12/28 07:20:30;;;;;;;;;;;24.10;99.90;;;;;;4993218;28;20276;-81
2022/12/28 07:22:57;;;;;;;;;;;24.20;99.90;;;;;;4992735;28;19910;-79
2022/12/28 07:25:24;;;;;;;;;;;24.10;99.90;;;;;;4992813;28;19910;-76
2022/12/28 07:27:50;;;;;;;;;;;24.10;99.90;;;;;;4992680;28;19933;-70
2022/12/28 07:30:17;;;;;;;;;;;24.20;99.90;;;;;;4992793;28;19914;-81
2022/12/28 07:32:44;;;;;;;;;;;24.10;99.90;;;;;;4992964;28;19914;-74
2022/12/28 07:35:10;;;;;;;;;;;24.10;99.90;;;;;;4992808;28;19922;-78
2022/12/28 07:37:37;;;;;;;;;;;24.10;99.90;;;;;;4992146;28;19910;-76
2022/12/28 07:40:04;;;;;;;;;;;24.10;99.90;;;;;;4992944;28;19924;-77
2022/12/28 07:42:30;;;;;;;;;;;24.10;99.90;;;;;;4992663;28;19913;-82
2022/12/28 07:44:57;;;;;;;;;;;23.90;99.90;;;;;;4992699;28;20395;-77
2022/12/28 07:47:24;;;;;;;;;;;23.90;99.90;;;;;;4992346;28;19922;-71
2022/12/28 07:49:50;;;;;;;;;;;23.80;99.90;;;;;;4992312;28;19918;-71
2022/12/28 07:52:17;;;;;;;;;;;23.80;99.90;;;;;;4992753;28;19924;-71
2022/12/28 07:54:44;;;;;;;;;;;23.80;99.90;;;;;;4992400;28;19966;-65
2022/12/28 07:57:10;;;;;;;;;;;23.70;99.90;;;;;;4992475;28;19914;-70
2022/12/28 07:59:37;;;;;;;;;;;23.70;99.90;;;;;;4992520;28;20023;-74
2022/12/28 08:02:04;;;;;;;;;;;23.60;99.90;;;;;;4992291;28;20435;-72
2022/12/28 08:04:30;;;;;;;;;;;23.60;99.90;;;;;;4992580;28;19952;-70
2022/12/28 08:06:57;;;;;;;;;;;23.50;99.90;;;;;;4992681;28;19968;-81
2022/12/28 08:09:23;;;;;;;;;;;23.60;99.90;;;;;;4992171;28;20013;-80
2022/12/28 08:11:50;;;;;;;;;;;23.50;99.90;;;;;;4994329;28;19914;-80
2022/12/28 08:14:17;;;;;;;;;;;23.50;99.90;;;;;;4994513;28;19909;-79
2022/12/28 08:16:44;;;;;;;;;;;23.40;99.90;;;;;;4994510;28;20261;-82
2022/12/28 08:19:11;;;;;;;;;;;23.40;99.90;;;;;;4994458;28;20412;-73
2022/12/28 08:21:39;;;;;;;;;;;23.40;99.90;;;;;;4994522;28;19910;-77
2022/12/28 08:24:06;;;;;;;;;;;23.30;99.90;;;;;;4994430;28;19910;-80
2022/12/28 08:26:34;;;;;;;;;;;23.30;99.90;;;;;;4994142;28;19925;-78
2022/12/28 08:29:02;;;;;;;;;;;23.30;99.90;;;;;;4994502;28;20272;-69
2022/12/28 08:31:34;;;;;;;;;;;23.30;99.90;;;;;;4994300;28;19917;-82
2022/12/28 08:34:01;;;;;;;;;;;23.30;99.90;;;;;;4994772;28;19967;-80
2022/12/28 08:36:28;;;;;;;;;;;23.30;99.90;;;;;;4994225;28;19910;-75
2022/12/28 08:38:56;;;;;;;;;;;23.30;99.90;;;;;;4994339;28;19910;-79
2022/12/28 08:41:24;;;;;;;;;;;23.20;99.90;;;;;;4993941;28;19910;-81
2022/12/28 08:43:51;;;;;;;;;;;23.20;99.90;;;;;;4994939;28;19914;-81
2022/12/28 08:46:23;;;;;;;;;;;23.20;99.90;;;;;;4994608;28;20357;-80
2022/12/28 08:48:50;;;;;;;;;;;23.20;99.90;;;;;;4994128;28;19910;-79
2022/12/28 08:51:19;;;;;;;;;;;23.10;99.90;;;;;;4994365;28;19997;-82
2022/12/28 08:53:45;;;;;;;;;;;23.00;99.90;;;;;;4995671;28;19929;-82
2022/12/28 08:56:13;;;;;;;;;;;23.10;99.90;;;;;;4995470;28;19953;-83
2022/12/28 08:58:41;;;;;;;;;;;23.10;99.90;;;;;;4996312;28;19914;-80
2022/12/28 09:01:16;;;;;;;;;;;23.10;99.90;;;;;;4995637;28;19917;-82
2022/12/28 09:03:44;;;;;;;;;;;23.10;99.90;;;;;;4993977;28;19917;-80
2022/12/28 09:06:12;;;;;;;;;;;23.10;99.90;;;;;;4995532;28;19914;-83
2022/12/28 09:08:38;;;;;;;;;;;23.00;99.90;;;;;;4995063;28;19910;-79
2022/12/28 09:11:07;;;;;;;;;;;23.00;99.90;;;;;;4994099;28;19918;-76
2022/12/28 09:13:34;;;;;;;;;;;22.90;99.90;;;;;;4993527;28;20389;-79
2022/12/28 09:16:02;;;;;;;;;;;22.90;99.90;;;;;;4993792;28;19976;-80
2022/12/28 09:18:29;;;;;;;;;;;22.90;99.90;;;;;;4993706;28;19910;-73
2022/12/28 09:20:56;;;;;;;;;;;22.90;99.90;;;;;;4993726;28;19915;-73
2022/12/28 09:23:22;;;;;;;;;;;22.90;99.90;;;;;;4993405;28;19999;-71
2022/12/28 09:25:49;;;;;;;;;;;22.90;99.90;;;;;;4993503;28;19982;-78
2022/12/28 09:28:16;;;;;;;;;;;22.90;99.90;;;;;;4993623;28;20060;-71
2022/12/28 09:30:42;;;;;;;;;;;22.90;99.90;;;;;;4993474;28;19964;-81
2022/12/28 09:35:56;;;;;;;;;;;22.90;99.90;;;;;;4993649;28;19920;-80
2022/12/28 09:38:23;;;;;;;;;;;22.90;99.90;;;;;;4993655;28;19910;-77
2022/12/28 09:40:50;;;;;;;;;;;22.80;99.90;;;;;;4993441;28;19972;-81
2022/12/28 09:43:17;;;;;;;;;;;22.80;99.90;;;;;;4993253;28;19916;-75
2022/12/28 09:45:45;;;;;;;;;;;22.80;99.90;;;;;;4993880;28;19909;-79
2022/12/28 09:48:14;;;;;;;;;;;22.80;99.90;;;;;;4993572;28;20365;-76
2022/12/28 09:50:40;;;;;;;;;;;22.80;99.90;;;;;;4995359;28;19964;-75
2022/12/28 09:53:07;;;;;;;;;;;22.90;99.90;;;;;;4997140;28;19910;-80
2022/12/28 09:55:35;;;;;;;;;;;22.80;99.90;;;;;;4979308;28;19910;-82
2022/12/28 09:58:05;;;;;;;;;;;22.80;99.90;;;;;;4997304;28;20356;-74
2022/12/28 10:00:40;;;;;;;;;;;22.80;99.90;;;;;;4996997;28;20356;-78
2022/12/28 10:03:27;;;;;;;;;;;22.80;99.90;;;;;;4997012;28;19910;-74
2022/12/28 10:05:56;;;;;;;;;;;22.80;99.90;;;;;;4996693;28;19957;-80
2022/12/28 10:08:23;;;;;;;;;;;22.80;99.90;;;;;;4996928;28;19917;-76
2022/12/28 10:10:51;;;;;;;;;;;22.80;99.90;;;;;;4996942;28;20012;-78
2022/12/28 10:13:19;;;;;;;;;;;22.80;99.90;;;;;;4996542;28;19910;-80
2022/12/28 10:15:47;;;;;;;;;;;22.80;99.90;;;;;;4996759;28;19955;-72
2022/12/28 10:18:14;;;;;;;;;;;22.70;99.90;;;;;;4996848;28;19917;-78
2022/12/28 10:20:43;;;;;;;;;;;22.70;99.90;;;;;;4996801;28;19960;-73
2022/12/28 10:23:13;;;;;;;;;;;22.70;99.90;;;;;;4996936;28;19914;-79
2022/12/28 10:25:40;;;;;;;;;;;22.80;99.90;;;;;;4996283;28;19909;-75
2022/12/28 10:28:07;;;;;;;;;;;22.80;99.90;;;;;;4996496;28;19918;-74
2022/12/28 10:30:43;;;;;;;;;;;22.70;99.90;;;;;;4996639;28;19914;-80
2022/12/28 10:33:15;;;;;;;;;;;22.70;99.90;;;;;;4996574;28;20364;-79
2022/12/28 10:35:42;;;;;;;;;;;22.70;99.90;;;;;;4996648;28;20272;-77
2022/12/28 10:38:38;;;;;;;;;;;22.70;99.90;;;;;;4996379;28;19917;-78
2022/12/28 10:41:06;;;;;;;;;;;22.80;99.90;;;;;;4983604;28;19909;-82
2022/12/28 10:43:34;;;;;;;;;;;22.80;99.90;;;;;;4996109;28;19914;-81
2022/12/28 10:46:02;;;;;;;;;;;22.80;99.90;;;;;;4996206;28;19918;-77
2022/12/28 10:48:33;;;;;;;;;;;22.70;99.90;;;;;;4996131;28;19951;-67
2022/12/28 10:51:20;;;;;;;;;;;22.80;99.90;;;;;;4996099;28;19914;-80
2022/12/28 10:53:46;;;;;;;;;;;22.70;99.90;;;;;;4985644;28;19921;-67
2022/12/28 10:56:13;;;;;;;;;;;22.80;99.90;;;;;;4995944;28;19989;-73
2022/12/28 10:58:41;;;;;;;;;;;22.80;99.90;;;;;;4996089;28;19910;-75
2022/12/28 11:01:10;;;;;;;;;;;22.80;99.90;;;;;;4995413;28;19910;-73
2022/12/28 11:03:38;;;;;;;;;;;22.80;99.90;;;;;;4995194;28;19996;-75
2022/12/28 11:06:09;;;;;;;;;;;22.80;99.90;;;;;;4996115;28;19910;-80
2022/12/28 11:08:36;;;;;;;;;;;22.80;99.90;;;;;;4995861;28;19989;-69
2022/12/28 11:11:02;;;;;;;;;;;22.80;99.90;;;;;;4995635;28;19910;-77
2022/12/28 11:13:29;;;;;;;;;;;22.70;99.90;;;;;;4995761;28;19910;-69
2022/12/28 11:15:56;;;;;;;;;;;22.70;99.90;;;;;;4993012;28;19937;-77
2022/12/28 11:18:23;;;;;;;;;;;22.70;99.90;;;;;;4986428;28;19914;-77
2022/12/28 11:20:53;;;;;;;;;;;22.70;99.90;;;;;;4986961;28;20446;-76
2022/12/28 11:23:30;;;;;;;;;;;22.70;99.90;;;;;;4986821;28;19944;-79
2022/12/28 11:25:57;;;;;;;;;;;22.70;99.90;;;;;;4987022;28;19913;-75
2022/12/28 11:28:24;;;;;;;;;;;22.60;99.90;;;;;;4987235;28;20225;-79
2022/12/28 11:30:51;;;;;;;;;;;22.70;99.90;;;;;;4987154;28;19918;-80
2022/12/28 11:33:36;;;;;;;;;;;22.60;99.90;;;;;;4987604;28;19913;-76
2022/12/28 11:36:03;;;;;;;;;;;22.60;99.90;;;;;;4986832;28;19913;-80
2022/12/28 11:38:37;;;;;;;;;;;22.60;99.90;;;;;;4987752;28;19932;-78
2022/12/28 11:41:04;;;;;;;;;;;22.60;99.90;;;;;;4990391;28;20127;-75
2022/12/28 11:43:34;;;;;;;;;;;22.60;99.90;;;;;;4999418;28;19945;-77
2022/12/28 11:46:01;;;;;;;;;;;22.60;99.90;;;;;;4996436;28;20037;-79
2022/12/28 11:48:43;;;;;;;;;;;22.60;99.90;;;;;;4993992;28;19914;-78
2022/12/28 11:51:26;;;;;;;;;;;22.60;99.90;;;;;;4988398;28;20408;-74
2022/12/28 11:53:56;;;;;;;;;;;22.60;99.90;;;;;;4986101;28;19926;-76
2022/12/28 11:56:46;;;;;;;;;;;22.60;99.90;;;;;;4986006;28;19914;-77
2022/12/28 11:59:21;;;;;;;;;;;22.60;99.90;;;;;;4986128;28;20041;-72
2022/12/28 12:01:49;;;;;;;;;;;22.60;99.90;;;;;;4986210;28;19914;-78
2022/12/28 12:04:17;;;;;;;;;;;22.60;99.90;;;;;;4985871;28;19914;-69
2022/12/28 12:06:45;;;;;;;;;;;22.60;99.90;;;;;;4986040;28;20036;-77
2022/12/28 12:09:24;;;;;;;;;;;22.60;99.90;;;;;;4985305;28;20273;-73
2022/12/28 12:11:54;;;;;;;;;;;22.50;99.90;;;;;;4986053;28;19918;-78
2022/12/28 12:14:23;;;;;;;;;;;22.50;99.90;;;;;;4985581;28;19918;-78
2022/12/28 12:16:52;;;;;;;;;;;22.50;99.90;;;;;;4985888;28;19913;-73
2022/12/28 12:19:26;;;;;;;;;;;22.50;99.90;;;;;;4985741;28;19914;-71
2022/12/28 12:22:00;;;;;;;;;;;22.50;99.90;;;;;;4985438;28;20443;-81
2022/12/28 12:24:28;;;;;;;;;;;22.50;99.90;;;;;;4986054;28;20352;-78
2022/12/28 12:26:57;;;;;;;;;;;22.50;99.90;;;;;;4985577;28;19921;-75
2022/12/28 12:29:36;;;;;;;;;;;22.40;99.90;;;;;;4985112;28;20407;-74
2022/12/28 12:32:09;;;;;;;;;;;22.50;99.90;;;;;;4985826;28;20369;-82
2022/12/28 12:35:05;;;;;;;;;;;22.40;99.90;;;;;;4985333;28;19914;-75
2022/12/28 12:37:53;;;;;;;;;;;22.40;99.90;;;;;;4972642;28;19918;-76
2022/12/28 12:40:38;;;;;;;;;;;22.50;99.90;;;;;;4967599;28;20150;-75
2022/12/28 12:43:23;;;;;;;;;;;22.50;99.90;;;;;;4985654;28;19964;-75
2022/12/28 12:45:59;;;;;;;;;;;22.50;99.90;;;;;;4985280;28;19914;-81
2022/12/28 12:48:32;;;;;;;;;;;22.50;99.90;;;;;;4985673;28;20267;-73
2022/12/28 12:50:59;;;;;;;;;;;22.50;99.90;;;;;;4985639;28;19957;-81
2022/12/28 12:53:35;;;;;;;;;;;22.50;99.90;;;;;;4984937;28;19922;-78
2022/12/28 12:56:09;;;;;;;;;;;22.60;99.90;;;;;;4985366;28;20456;-81
2022/12/28 12:58:55;;;;;;;;;;;22.60;99.90;;;;;;4985614;28;20307;-76
2022/12/28 13:01:42;;;;;;;;;;;22.60;99.90;;;;;;4985400;28;19922;-77
2022/12/28 13:04:14;;;;;;;;;;;22.60;99.90;;;;;;4985276;28;20364;-76
2022/12/28 13:06:41;;;;;;;;;;;22.60;99.90;;;;;;4985344;28;19930;-76
2022/12/28 13:09:13;;;;;;;;;;;22.50;99.90;;;;;;4985627;28;19918;-74
2022/12/28 13:11:40;;;;;;;;;;;22.50;99.90;;;;;;4984848;28;20288;-78
2022/12/28 13:14:12;;;;;;;;;;;22.50;99.90;;;;;;4984838;28;19929;-72
2022/12/28 13:16:39;;;;;;;;;;;22.50;99.90;;;;;;4985256;28;20458;-78
2022/12/28 13:19:06;;;;;;;;;;;22.50;99.90;;;;;;4985619;28;19921;-77
2022/12/28 13:21:40;;;;;;;;;;;22.50;99.90;;;;;;4985011;28;19921;-75
2022/12/28 13:24:20;;;;;;;;;;;22.50;99.90;;;;;;4985139;28;19914;-70
2022/12/28 13:26:47;;;;;;;;;;;22.60;99.90;;;;;;4994184;28;19960;-74
2022/12/28 13:29:17;;;;;;;;;;;22.50;99.90;;;;;;4987940;28;20444;-74
2022/12/28 13:31:50;;;;;;;;;;;22.50;99.90;;;;;;4988983;28;20466;-74
2022/12/28 13:34:21;;;;;;;;;;;22.50;99.90;;;;;;4988965;28;20289;-80
2022/12/28 13:36:48;;;;;;;;;;;22.50;99.90;;;;;;4989255;28;20367;-81
2022/12/28 13:39:17;;;;;;;;;;;22.50;99.90;;;;;;4988701;28;20049;-81
2022/12/28 13:41:48;;;;;;;;;;;22.50;99.90;;;;;;4988908;28;20360;-80
2022/12/28 13:44:15;;;;;;;;;;;22.50;99.90;;;;;;4989239;28;19968;-80
2022/12/28 13:46:43;;;;;;;;;;;22.60;99.90;;;;;;4988545;28;20339;-74
2022/12/28 13:49:10;;;;;;;;;;;22.60;99.90;;;;;;4988712;28;20374;-81
2022/12/28 13:51:38;;;;;;;;;;;22.60;99.90;;;;;;4988187;28;19924;-72
2022/12/28 13:54:06;;;;;;;;;;;22.50;99.90;;;;;;4989605;28;19926;-75
2022/12/28 13:56:33;;;;;;;;;;;22.60;99.90;;;;;;4997165;28;20004;-74
2022/12/28 13:59:02;;;;;;;;;;;22.50;99.90;;;;;;4997152;28;19916;-80
2022/12/28 14:01:33;;;;;;;;;;;22.50;99.90;;;;;;4997037;28;19917;-69
2022/12/28 14:04:03;;;;;;;;;;;22.40;99.90;;;;;;4996881;28;20018;-76
2022/12/28 14:06:29;;;;;;;;;;;22.50;99.90;;;;;;4996964;28;19917;-68
2022/12/28 14:08:57;;;;;;;;;;;22.50;99.90;;;;;;4996522;28;19910;-71
2022/12/28 14:11:24;;;;;;;;;;;22.50;99.90;;;;;;4996694;28;20372;-75
2022/12/28 14:13:51;;;;;;;;;;;22.50;99.90;;;;;;4996800;28;19914;-73
2022/12/28 14:16:18;;;;;;;;;;;22.50;99.90;;;;;;4997255;28;19909;-74
2022/12/28 14:18:44;;;;;;;;;;;22.50;99.90;;;;;;4997077;28;19910;-76
2022/12/28 14:21:11;;;;;;;;;;;22.40;99.90;;;;;;4996933;28;19960;-77
2022/12/28 14:23:38;;;;;;;;;;;22.50;99.90;;;;;;4996334;28;19921;-77
2022/12/28 14:26:07;;;;;;;;;;;22.50;99.90;;;;;;4996758;28;20424;-80
2022/12/28 14:28:34;;;;;;;;;;;22.50;99.90;;;;;;4997659;28;20073;-79
2022/12/28 14:31:01;;;;;;;;;;;22.50;99.90;;;;;;4997087;28;19968;-80
2022/12/28 14:33:31;;;;;;;;;;;22.50;99.90;;;;;;4997085;28;19993;-80
2022/12/28 14:35:59;;;;;;;;;;;22.40;99.90;;;;;;4997015;28;19916;-81
2022/12/28 14:38:34;;;;;;;;;;;22.30;99.90;;;;;;4997201;28;19910;-79
2022/12/28 14:41:02;;;;;;;;;;;22.30;99.90;;;;;;4996714;28;19914;-80
2022/12/28 14:43:30;;;;;;;;;;;22.30;99.90;;;;;;4996790;28;19910;-80
2022/12/28 14:46:14;;;;;;;;;;;22.30;99.90;;;;;;4996992;28;20292;-77
2022/12/28 14:48:41;;;;;;;;;;;22.30;99.90;;;;;;4997080;28;19968;-81
2022/12/28 14:51:11;;;;;;;;;;;22.30;99.90;;;;;;4997864;28;19957;-80
2022/12/28 14:53:37;;;;;;;;;;;22.30;99.90;;;;;;4997248;28;19925;-78
2022/12/28 14:56:07;;;;;;;;;;;22.30;99.90;;;;;;4997751;28;19952;-81
2022/12/28 14:58:33;;;;;;;;;;;22.30;99.90;;;;;;4997708;28;19910;-80
2022/12/28 15:01:01;;;;;;;;;;;22.20;99.90;;;;;;4997641;28;20463;-80